createdAt,value
2019-02-26T00:00:12.763Z,43.23
2019-02-26T00:02:56.295Z,44.43
2019-02-26T00:05:30.687Z,44.83
2019-02-26T00:08:05.205Z,44.03
2019-02-26T00:10:39.015Z,43.83
2019-02-26T00:13:10.692Z,42.00
2019-02-26T00:15:43.157Z,42.97
2019-02-26T00:18:16.833Z,41.17
2019-02-26T00:20:50.642Z,41.40
2019-02-26T00:23:23.606Z,47.07
2019-02-26T00:25:54.745Z,42.80
2019-02-26T00:28:26.490Z,43.53
2019-02-26T00:30:59.358Z,43.30
2019-02-26T00:33:30.733Z,41.33
2019-02-26T00:36:39.296Z,41.13
2019-02-26T00:39:10.516Z,38.23
2019-02-26T00:41:41.922Z,39.17
2019-02-26T00:44:14.724Z,39.00
2019-02-26T00:46:46.369Z,37.77
2019-02-26T00:49:21.591Z,41.33
2019-02-26T00:51:53.092Z,37.23
2019-02-26T00:54:24.492Z,38.10
2019-02-26T00:57:01.093Z,39.08
2019-02-26T00:59:30.846Z,38.50
2019-02-26T01:02:03.603Z,37.00
2019-02-26T01:04:39.630Z,36.17
2019-02-26T01:07:19.090Z,36.15
2019-02-26T01:09:52.408Z,39.63
2019-02-26T01:12:25.466Z,38.83
2019-02-26T01:14:58.274Z,37.38
2019-02-26T01:17:31.610Z,38.25
2019-02-26T01:20:06.150Z,38.05
2019-02-26T01:22:40.251Z,38.05
2019-02-26T01:25:27.685Z,38.77
2019-02-26T01:28:01.452Z,36.97
2019-02-26T01:30:35.655Z,39.98
2019-02-26T01:33:07.426Z,40.98
2019-02-26T01:35:39.637Z,41.87
2019-02-26T01:38:12.614Z,40.65
2019-02-26T01:40:46.508Z,42.33
2019-02-26T01:43:18.401Z,43.20
2019-02-26T01:49:02.033Z,41.63
2019-02-26T01:51:33.584Z,39.53
2019-02-26T01:54:07.514Z,40.73
2019-02-26T01:59:34.638Z,38.00
2019-02-26T02:02:12.183Z,37.17
2019-02-26T02:04:43.372Z,38.33
2019-02-26T02:07:15.416Z,37.40
2019-02-26T02:09:50.711Z,39.55
2019-02-26T02:12:20.860Z,37.90
2019-02-26T02:14:52.948Z,37.90
2019-02-26T02:17:24.768Z,42.85
2019-02-26T02:19:56.406Z,41.40
2019-02-26T02:22:29.512Z,42.73
2019-02-26T02:25:02.729Z,46.58
2019-02-26T02:27:34.372Z,45.52
2019-02-26T02:30:22.698Z,45.98
2019-02-26T02:32:53.022Z,44.27
2019-02-26T02:35:23.020Z,47.93
2019-02-26T02:38:00.072Z,51.70
2019-02-26T02:40:32.986Z,52.80
2019-02-26T02:43:07.953Z,51.05
2019-02-26T02:45:38.717Z,51.63
2019-02-26T02:48:11.751Z,52.03
2019-02-26T02:50:45.138Z,53.35
2019-02-26T02:53:21.247Z,50.03
2019-02-26T02:55:52.686Z,50.10
2019-02-26T02:58:26.078Z,52.08
2019-02-26T03:01:00.302Z,51.50
2019-02-26T03:03:34.360Z,51.77
2019-02-26T03:06:07.756Z,55.47
2019-02-26T03:08:41.638Z,55.00
2019-02-26T03:11:14.019Z,54.27
2019-02-26T03:13:45.872Z,56.33
2019-02-26T03:16:21.099Z,56.87
2019-02-26T03:18:52.590Z,54.80
2019-02-26T03:21:24.746Z,54.05
2019-02-26T03:23:57.780Z,53.30
2019-02-26T03:26:30.326Z,52.30
2019-02-26T03:29:01.999Z,57.70
2019-02-26T03:31:39.720Z,51.42
2019-02-26T03:34:10.483Z,51.33
2019-02-26T03:36:45.073Z,49.30
2019-02-26T03:39:14.746Z,51.17
2019-02-26T03:41:48.478Z,49.00
2019-02-26T03:44:18.947Z,52.27
2019-02-26T03:46:50.959Z,51.90
2019-02-26T03:49:26.346Z,51.43
2019-02-26T03:51:59.057Z,50.60
2019-02-26T03:54:27.094Z,52.73
2019-02-26T03:56:58.445Z,51.23
2019-02-26T03:59:30.163Z,50.77
2019-02-26T04:02:01.569Z,53.70
2019-02-26T04:04:33.747Z,47.97
2019-02-26T04:07:08.104Z,53.98
2019-02-26T04:09:41.809Z,52.80
2019-02-26T04:12:13.098Z,51.37
2019-02-26T04:14:44.063Z,51.68
2019-02-26T04:17:15.835Z,51.50
2019-02-26T04:19:48.891Z,57.67
2019-02-26T04:22:29.246Z,58.00
2019-02-26T04:25:06.359Z,57.87
2019-02-26T04:27:53.852Z,54.40
2019-02-26T04:30:56.480Z,53.15
2019-02-26T04:33:50.297Z,49.98
2019-02-26T04:36:27.481Z,51.40
2019-02-26T04:39:10.868Z,52.67
2019-02-26T04:41:57.829Z,54.70
2019-02-26T04:44:47.675Z,52.23
2019-02-26T04:47:18.397Z,49.83
2019-02-26T04:49:50.956Z,48.43
2019-02-26T04:52:21.802Z,53.83
2019-02-26T04:54:54.898Z,54.13
2019-02-26T04:57:26.281Z,47.27
2019-02-26T05:00:01.047Z,50.90
2019-02-26T05:02:31.946Z,53.63
2019-02-26T05:05:03.874Z,50.30
2019-02-26T05:07:36.117Z,47.07
2019-02-26T05:10:09.286Z,48.17
2019-02-26T05:12:41.210Z,48.80
2019-02-26T05:15:17.000Z,47.43
2019-02-26T05:17:45.905Z,48.63
2019-02-26T05:20:18.900Z,51.53
2019-02-26T05:22:49.062Z,49.83
2019-02-26T05:25:20.493Z,49.35
2019-02-26T05:27:52.457Z,52.15
2019-02-26T05:30:24.058Z,50.23
2019-02-26T05:32:57.941Z,46.90
2019-02-26T05:35:28.357Z,48.73
2019-02-26T05:38:03.061Z,44.93
2019-02-26T05:40:37.372Z,50.35
2019-02-26T05:43:06.747Z,50.30
2019-02-26T05:45:38.911Z,50.57
2019-02-26T05:48:09.700Z,48.05
2019-02-26T05:50:43.842Z,50.98
2019-02-26T05:53:13.943Z,48.80
2019-02-26T05:55:47.680Z,52.05
2019-02-26T05:58:20.865Z,49.43
2019-02-26T06:00:50.559Z,50.88
2019-02-26T06:03:23.801Z,46.53
2019-02-26T06:05:58.277Z,47.03
2019-02-26T06:08:33.704Z,49.25
2019-02-26T06:11:03.833Z,47.00
2019-02-26T06:13:37.673Z,48.17
2019-02-26T06:16:07.635Z,50.30
2019-02-26T06:18:41.224Z,47.33
2019-02-26T06:21:13.783Z,50.13
2019-02-26T06:23:46.604Z,47.87
2019-02-26T06:26:18.559Z,49.63
2019-02-26T06:28:57.867Z,48.15
2019-02-26T06:31:29.593Z,51.53
2019-02-26T06:34:06.447Z,51.00
2019-02-26T06:36:38.043Z,50.65
2019-02-26T06:39:10.448Z,50.00
2019-02-26T06:41:44.441Z,54.20
2019-02-26T06:44:16.578Z,53.47
2019-02-26T06:46:47.536Z,56.35
2019-02-26T06:49:22.805Z,54.67
2019-02-26T06:51:54.305Z,52.78
2019-02-26T06:54:31.760Z,52.33
2019-02-26T06:57:04.601Z,53.35
2019-02-26T07:00:09.795Z,50.15
2019-02-26T07:02:46.842Z,53.65
2019-02-26T07:05:23.833Z,52.20
2019-02-26T07:07:56.513Z,51.48
2019-02-26T07:14:16.990Z,50.10
2019-02-26T07:16:49.679Z,50.87
2019-02-26T07:19:22.414Z,53.67
2019-02-26T07:21:55.235Z,53.87
2019-02-26T07:24:27.208Z,53.40
2019-02-26T07:27:02.472Z,52.30
2019-02-26T07:29:36.885Z,50.23
2019-02-26T07:32:24.615Z,51.17
2019-02-26T07:52:33.057Z,45.20
2019-02-26T07:58:45.881Z,45.33
2019-02-26T08:02:01.239Z,45.77
2019-02-26T08:04:38.773Z,42.93
2019-02-26T08:18:12.482Z,40.93
2019-02-26T08:20:43.868Z,43.20
2019-02-26T08:23:19.303Z,43.20
2019-02-26T08:25:52.039Z,44.17
2019-02-26T08:28:24.495Z,42.77
2019-02-26T08:30:57.206Z,43.33
2019-02-26T08:33:27.741Z,40.73
2019-02-26T08:36:26.371Z,42.03
2019-02-26T08:38:58.197Z,41.80
2019-02-26T08:41:30.839Z,41.87
2019-02-26T08:44:05.582Z,40.97
2019-02-26T08:46:47.364Z,37.77
2019-02-26T09:02:13.243Z,37.77
2019-02-26T09:04:45.176Z,38.60
2019-02-26T09:07:18.947Z,38.90
2019-02-26T09:09:52.078Z,38.03
2019-02-26T09:12:24.501Z,38.10
2019-02-26T09:14:59.134Z,39.73
2019-02-26T09:17:32.478Z,36.10
2019-02-26T09:20:09.765Z,37.07
2019-02-26T09:22:45.755Z,38.93
2019-02-26T09:25:20.402Z,37.33
2019-02-26T09:27:51.274Z,38.73
2019-02-26T09:30:24.973Z,38.83
2019-02-26T09:32:59.057Z,40.37
2019-02-26T09:35:33.121Z,39.13
2019-02-26T09:38:03.759Z,38.20
2019-02-26T09:40:35.704Z,38.83
2019-02-26T09:43:08.941Z,41.50
2019-02-26T09:45:43.052Z,40.10
2019-02-26T09:48:15.263Z,40.03
2019-02-26T09:50:46.384Z,39.97
2019-02-26T09:53:18.117Z,39.43
2019-02-26T09:55:48.926Z,38.97
2019-02-26T09:58:21.209Z,39.20
2019-02-26T10:00:56.724Z,41.43
2019-02-26T10:03:29.704Z,39.73
2019-02-26T10:06:02.323Z,42.40
2019-02-26T10:08:34.836Z,43.83
2019-02-26T10:11:06.236Z,42.57
2019-02-26T10:13:39.560Z,42.40
2019-02-26T10:16:11.815Z,44.00
2019-02-26T10:18:47.158Z,44.77
2019-02-26T10:21:20.579Z,44.07
2019-02-26T10:23:54.074Z,48.23
2019-02-26T10:26:28.708Z,49.10
2019-02-26T10:29:04.387Z,49.17
2019-02-26T10:31:40.401Z,48.33
2019-02-26T10:34:12.602Z,50.33
2019-02-26T10:36:46.296Z,48.17
2019-02-26T10:39:20.089Z,47.83
2019-02-26T10:41:49.937Z,50.73
2019-02-26T10:44:20.684Z,51.23
2019-02-26T10:46:51.481Z,54.37
2019-02-26T10:49:21.870Z,52.60
2019-02-26T10:51:55.568Z,51.27
2019-02-26T10:54:28.677Z,53.50
2019-02-26T10:57:00.388Z,53.93
2019-02-26T10:59:33.732Z,53.57
2019-02-26T11:02:04.819Z,53.67
2019-02-26T11:04:38.094Z,52.87
2019-02-26T11:07:09.383Z,53.47
2019-02-26T11:09:40.778Z,55.03
2019-02-26T11:12:12.371Z,56.93
2019-02-26T11:14:44.628Z,58.47
2019-02-26T11:17:17.883Z,56.13
2019-02-26T11:19:49.397Z,59.63
2019-02-26T11:22:23.405Z,58.33
2019-02-26T11:25:00.978Z,58.33
2019-02-26T11:27:37.777Z,57.70
2019-02-26T11:30:12.627Z,60.97
2019-02-26T11:33:02.071Z,58.73
2019-02-26T11:38:46.702Z,57.03
2019-02-26T11:41:36.206Z,56.83
2019-02-26T11:45:02.702Z,54.40
2019-02-26T11:47:34.435Z,51.87
2019-02-26T11:50:11.711Z,51.53
2019-02-26T11:52:43.946Z,51.70
2019-02-26T11:55:19.527Z,48.90
2019-02-26T11:57:54.312Z,48.57
2019-02-26T12:00:56.936Z,47.97
2019-02-26T12:03:45.745Z,47.40
2019-02-26T12:06:58.375Z,49.43
2019-02-26T12:09:57.762Z,47.37
2019-02-26T12:12:45.031Z,48.20
2019-02-26T12:21:58.114Z,48.47
2019-02-26T12:24:31.456Z,47.40
2019-02-26T12:27:03.787Z,49.00
2019-02-26T12:29:35.912Z,48.70
2019-02-26T12:32:09.088Z,49.20
2019-02-26T12:35:17.710Z,51.83
2019-02-26T12:37:55.832Z,49.43
2019-02-26T12:40:25.744Z,48.87
2019-02-26T12:43:30.204Z,46.67
2019-02-26T12:46:01.493Z,38.37
2019-02-26T12:48:41.826Z,39.80
2019-02-26T12:51:25.270Z,40.93
2019-02-26T12:53:55.233Z,37.50
2019-02-26T13:01:07.223Z,36.37
2019-02-26T13:10:46.403Z,39.03
2019-02-26T13:13:16.387Z,34.40
2019-02-26T13:15:59.559Z,30.83
2019-02-26T13:18:31.570Z,29.97
2019-02-26T13:21:03.959Z,30.83
2019-02-26T13:23:42.707Z,28.07
2019-02-26T13:29:23.742Z,30.97
2019-02-26T13:31:59.064Z,31.83
2019-02-26T13:34:27.388Z,31.77
2019-02-26T13:36:59.297Z,33.17
2019-02-26T13:39:38.239Z,36.00
2019-02-26T13:42:10.705Z,33.87
2019-02-26T13:44:38.694Z,34.43
2019-02-26T13:47:10.065Z,34.17
2019-02-26T13:49:40.985Z,32.87
2019-02-26T13:52:12.568Z,35.20
2019-02-26T13:54:43.481Z,32.37
2019-02-26T13:57:14.262Z,32.17
2019-02-26T13:59:48.049Z,31.17
2019-02-26T14:02:19.695Z,31.97
2019-02-26T14:04:51.276Z,29.07
2019-02-26T14:07:22.658Z,30.07
2019-02-26T14:09:54.814Z,32.00
2019-02-26T14:12:26.485Z,33.63
2019-02-26T14:15:00.355Z,32.67
2019-02-26T14:17:32.664Z,28.03
2019-02-26T14:20:06.885Z,26.50
2019-02-26T14:22:42.816Z,29.63
2019-02-26T14:25:15.175Z,32.23
2019-02-26T14:27:47.007Z,35.67
2019-02-26T14:30:24.312Z,37.03
2019-02-26T14:32:57.223Z,38.37
2019-02-26T14:35:28.544Z,36.37
2019-02-26T14:38:01.046Z,37.23
2019-02-26T14:40:32.453Z,39.03
2019-02-26T14:43:03.820Z,37.87
2019-02-26T14:45:34.809Z,37.80
2019-02-26T14:48:05.683Z,37.67
2019-02-26T14:50:37.084Z,39.20
2019-02-26T14:53:09.952Z,41.80
2019-02-26T14:55:41.204Z,41.53
2019-02-26T14:58:14.191Z,40.67
2019-02-26T15:00:57.125Z,40.90
2019-02-26T15:03:23.991Z,41.57
2019-02-26T15:05:56.776Z,42.57
2019-02-26T15:08:29.613Z,43.10
2019-02-26T15:11:02.116Z,44.03
2019-02-26T15:13:36.100Z,41.40
2019-02-26T15:16:07.534Z,40.90
2019-02-26T15:18:39.639Z,39.67
2019-02-26T15:21:12.002Z,43.70
2019-02-26T15:23:46.188Z,43.90
2019-02-26T15:26:18.359Z,42.10
2019-02-26T15:28:54.301Z,41.80
2019-02-26T15:31:29.768Z,41.63
2019-02-26T15:34:05.729Z,42.73
2019-02-26T15:36:37.073Z,40.83
2019-02-26T15:39:10.096Z,39.70
2019-02-26T15:41:42.152Z,41.20
2019-02-26T15:44:13.393Z,43.33
2019-02-26T15:46:45.120Z,41.03
2019-02-26T15:49:17.609Z,37.40
2019-02-26T15:51:51.043Z,35.63
2019-02-26T15:54:25.334Z,35.73
2019-02-26T15:56:57.649Z,35.00
2019-02-26T15:59:29.865Z,36.77
2019-02-26T16:02:01.593Z,38.73
2019-02-26T16:04:32.531Z,39.87
2019-02-26T16:07:03.673Z,40.63
2019-02-26T16:09:35.774Z,39.20
2019-02-26T16:12:06.993Z,40.43
2019-02-26T16:14:38.605Z,42.97
2019-02-26T16:17:09.967Z,42.20
2019-02-26T16:19:41.515Z,41.03
2019-02-26T16:22:12.923Z,41.60
2019-02-26T16:24:43.664Z,41.70
2019-02-26T16:27:15.705Z,41.70
2019-02-26T16:29:49.514Z,40.80
2019-02-26T16:32:22.510Z,39.97
2019-02-26T16:34:54.190Z,41.33
2019-02-26T16:37:26.520Z,43.23
2019-02-26T16:39:59.788Z,40.40
2019-02-26T16:46:14.572Z,36.83
2019-02-26T16:48:47.093Z,36.23
2019-02-26T16:51:20.957Z,38.80
2019-02-26T16:53:50.914Z,36.93
2019-02-26T16:56:22.452Z,38.17
2019-02-26T16:58:53.890Z,38.57
2019-02-26T17:01:25.536Z,39.03
2019-02-26T17:03:57.020Z,39.67
2019-02-26T17:06:28.142Z,38.17
2019-02-26T17:08:59.318Z,39.50
2019-02-26T17:11:30.619Z,39.40
2019-02-26T17:14:02.998Z,37.87
2019-02-26T17:16:35.319Z,38.70
2019-02-26T17:19:06.647Z,38.23
2019-02-26T17:21:37.892Z,37.57
2019-02-26T17:24:09.368Z,36.17
2019-02-26T17:26:44.076Z,36.60
2019-02-26T17:29:16.909Z,37.70
2019-02-26T17:31:47.725Z,37.03
2019-02-26T17:34:20.643Z,37.47
2019-02-26T17:36:54.925Z,38.70
2019-02-26T17:39:28.652Z,46.73
2019-02-26T17:42:01.009Z,59.13
2019-02-26T17:44:32.778Z,61.63
2019-02-26T17:47:05.114Z,59.40
2019-02-26T17:49:37.993Z,53.00
2019-02-26T17:52:09.821Z,49.00
2019-02-26T17:54:40.935Z,42.97
2019-02-26T17:57:11.986Z,45.03
2019-02-26T17:59:43.196Z,45.53
2019-02-26T18:02:14.233Z,43.80
2019-02-26T18:04:46.162Z,36.80
2019-02-26T18:07:17.030Z,35.03
2019-02-26T18:09:50.576Z,35.47
2019-02-26T18:12:21.729Z,36.27
2019-02-26T18:14:56.160Z,36.00
2019-02-26T18:17:28.360Z,36.07
2019-02-26T18:20:02.578Z,37.67
2019-02-26T18:22:34.369Z,37.00
2019-02-26T18:25:07.368Z,34.63
2019-02-26T18:27:39.106Z,35.33
2019-02-26T18:30:14.993Z,34.10
2019-02-26T18:32:50.152Z,32.43
2019-02-26T18:35:17.575Z,35.13
2019-02-26T18:37:48.634Z,36.73
2019-02-26T18:40:20.494Z,39.43
2019-02-26T18:42:51.612Z,39.50
2019-02-26T18:45:28.935Z,36.30
2019-02-26T18:48:00.588Z,38.00
2019-02-26T18:50:30.981Z,38.23
2019-02-26T18:53:02.550Z,36.30
2019-02-26T18:55:33.673Z,36.70
2019-02-26T18:58:05.264Z,37.97
2019-02-26T19:00:36.570Z,38.57
2019-02-26T19:03:09.326Z,40.07
2019-02-26T19:05:40.205Z,39.53
2019-02-26T19:08:11.599Z,42.50
2019-02-26T19:10:44.059Z,40.27
2019-02-26T19:13:14.611Z,40.00
2019-02-26T19:15:47.520Z,37.90
2019-02-26T19:18:18.224Z,37.13
2019-02-26T19:20:49.618Z,38.40
2019-02-26T19:23:22.090Z,37.90
2019-02-26T19:25:56.241Z,39.27
2019-02-26T19:28:28.169Z,36.33
2019-02-26T19:31:01.433Z,38.57
2019-02-26T19:33:32.992Z,39.73
2019-02-26T19:36:05.717Z,38.17
2019-02-26T19:38:37.821Z,36.03
2019-02-26T19:41:15.861Z,35.67
2019-02-26T19:43:47.425Z,38.97
2019-02-26T19:46:20.204Z,35.60
2019-02-26T19:48:52.792Z,35.53
2019-02-26T19:51:27.769Z,35.77
2019-02-26T19:54:01.591Z,36.57
2019-02-26T19:56:35.311Z,37.20
2019-02-26T19:59:07.586Z,35.93
2019-02-26T20:01:40.262Z,36.27
2019-02-26T20:04:11.673Z,33.93
2019-02-26T20:06:42.187Z,34.57
2019-02-26T20:09:13.290Z,33.40
2019-02-26T20:11:43.770Z,32.63
2019-02-26T20:14:21.291Z,34.43
2019-02-26T20:16:50.643Z,34.13
2019-02-26T20:19:24.832Z,34.23
2019-02-26T20:21:58.529Z,34.60
2019-02-26T20:24:31.023Z,34.73
2019-02-26T20:27:02.430Z,33.77
2019-02-26T20:29:34.924Z,35.47
2019-02-26T20:32:06.393Z,32.30
2019-02-26T20:34:38.850Z,32.90
2019-02-26T20:37:10.351Z,32.57
2019-02-26T20:39:44.193Z,34.93
2019-02-26T20:42:15.843Z,32.20
2019-02-26T20:44:48.006Z,32.17
2019-02-26T20:47:21.601Z,30.43
2019-02-26T20:49:55.593Z,30.20
2019-02-26T20:52:28.191Z,29.13
2019-02-26T20:55:00.553Z,29.53
2019-02-26T20:57:34.895Z,32.07
2019-02-26T21:00:11.989Z,29.93
2019-02-26T21:02:45.571Z,28.43
2019-02-26T21:05:16.910Z,30.70
2019-02-26T21:07:49.617Z,29.67
2019-02-26T21:10:21.858Z,30.53
2019-02-26T21:12:55.483Z,29.27
2019-02-26T21:15:28.747Z,30.17
2019-02-26T21:18:02.292Z,29.33
2019-02-26T21:20:34.397Z,28.30
2019-02-26T21:23:06.259Z,27.73
2019-02-26T21:25:38.269Z,27.63
2019-02-26T21:28:10.048Z,27.47
2019-02-26T21:30:41.066Z,27.23
2019-02-26T21:33:12.725Z,26.93
2019-02-26T21:35:45.514Z,26.83
2019-02-26T21:38:19.152Z,25.63
2019-02-26T21:40:52.084Z,26.47
2019-02-26T21:45:58.439Z,25.73
2019-02-26T21:48:31.987Z,25.83
2019-02-26T21:51:03.859Z,25.97
2019-02-26T21:53:36.540Z,25.07
2019-02-26T21:56:11.161Z,26.73
2019-02-26T21:58:43.547Z,28.10
2019-02-26T22:01:15.133Z,26.37
2019-02-26T22:03:48.687Z,27.27
2019-02-26T22:06:20.104Z,26.87
2019-02-26T22:08:51.931Z,30.07
2019-02-26T22:11:23.411Z,28.00
2019-02-26T22:13:55.458Z,28.47
2019-02-26T22:16:26.512Z,29.07
2019-02-26T22:18:58.264Z,28.17
2019-02-26T22:21:31.476Z,29.30
2019-02-26T22:24:04.645Z,28.27
2019-02-26T22:26:36.870Z,28.90
2019-02-26T22:29:09.283Z,29.87
2019-02-26T22:31:42.958Z,30.93
2019-02-26T22:34:16.716Z,31.13
2019-02-26T22:36:48.412Z,28.27
2019-02-26T22:39:22.693Z,28.97
2019-02-26T22:41:55.360Z,30.23
2019-02-26T22:44:27.549Z,29.97
2019-02-26T22:46:59.329Z,28.03
2019-02-26T22:49:31.140Z,29.63
2019-02-26T22:52:02.683Z,30.87
2019-02-26T22:54:35.029Z,28.87
2019-02-26T22:57:06.421Z,30.57
2019-02-26T22:59:38.581Z,29.73
2019-02-26T23:02:11.055Z,30.57
2019-02-26T23:04:42.899Z,30.37
2019-02-26T23:07:15.390Z,29.83
2019-02-26T23:09:52.073Z,31.13
2019-02-26T23:12:23.834Z,28.37
2019-02-26T23:14:56.085Z,29.37
2019-02-26T23:17:29.038Z,28.47
2019-02-26T23:20:02.109Z,29.07
2019-02-26T23:22:36.261Z,30.40
2019-02-26T23:25:10.224Z,28.97
2019-02-26T23:27:41.511Z,29.37
2019-02-26T23:30:14.615Z,29.37
2019-02-26T23:32:47.384Z,28.23
2019-02-26T23:35:19.483Z,27.80
2019-02-26T23:37:51.043Z,28.90
2019-02-26T23:40:24.915Z,29.30
2019-02-26T23:42:59.047Z,29.07
2019-02-26T23:45:30.986Z,27.77
2019-02-26T23:48:07.796Z,27.70
2019-02-26T23:50:38.655Z,29.23
2019-02-26T23:53:11.292Z,29.63
2019-02-26T23:55:47.941Z,31.47
2019-02-26T23:58:20.056Z,28.93
